Bookmark and Share
Track history (hours):
 

CMA CGM Hugo

Last reported at 2014-Apr-11 14:32 UTC. Time now 2014-Apr-16 16:09 UTC.
Position N 01°13' E 103°28'.

Length 334.1 m; beam 42.8 m; draft 14.5 m.

Type: Ship. MMSI: 211831000.

NotesDate/timePositionNaut miles runAvg speedWind from/ knotsBaromVisibWave heightAir tempDewpointWater temp
2014-Apr-11 14:32N 01°13' E 103°28'1212.6
2014-Apr-11 13:33N 01°13' E 103°41'6 5.6
2014-Apr-11 12:31N 01°17' E 103°46'0 0.0
2014-Apr-11 11:33N 01°17' E 103°46'0 0.0
2014-Apr-11 10:27N 01°17' E 103°46'0 0.0
2014-Apr-11 09:32N 01°17' E 103°46'0 0.0
2014-Apr-11 08:32N 01°17' E 103°46'0 0.0
2014-Apr-11 07:26N 01°17' E 103°46'0 0.0
2014-Apr-11 06:31N 01°17' E 103°46'0 0.0
2014-Apr-11 05:31N 01°17' E 103°46'0 0.0
2014-Apr-11 04:33N 01°17' E 103°46'0 0.0
2014-Apr-11 03:33N 01°17' E 103°46'0 0.0
2014-Apr-11 02:32N 01°17' E 103°46'0 0.0
2014-Apr-11 01:32N 01°17' E 103°46'0 0.0
2014-Apr-11 00:32N 01°17' E 103°46'0 0.0
2014-Apr-10 23:31N 01°17' E 103°46'0 0.0
2014-Apr-10 22:31N 01°17' E 103°46'0 0.0
2014-Apr-10 21:33N 01°17' E 103°46'0 0.0
2014-Apr-10 20:33N 01°17' E 103°46'0 0.0
2014-Apr-10 19:32N 01°17' E 103°46'0 0.0
2014-Apr-10 18:32N 01°17' E 103°46'0 0.0
2014-Apr-10 17:32N 01°17' E 103°46'0 0.0
2014-Apr-10 16:31N 01°17' E 103°46'0 0.0
2014-Apr-10 15:31N 01°17' E 103°46'0 0.0
2014-Apr-10 14:33N 01°17' E 103°46'0 0.2
2014-Apr-10 13:34N 01°16' E 103°45'8 8.0
2014-Apr-10 12:33N 01°13' E 103°53'  
2014-Apr-07 08:31N 22°13' E 114°10'7 7.3
2014-Apr-07 07:31N 22°20' E 114°07'1 0.2
2014-Apr-07 04:05N 22°20' E 114°08'0 0.0
2014-Apr-07 00:04N 22°20' E 114°08'0 0.0
2014-Apr-06 21:26N 22°20' E 114°08'0 0.0
2014-Apr-06 20:14N 22°20' E 114°08'0 0.0
2014-Apr-06 15:18N 22°20' E 114°08'0 0.3
2014-Apr-06 14:32N 22°20' E 114°08'10 7.4
2014-Apr-06 13:13N 22°11' E 114°12'23 1.2
2014-Apr-05 18:11N 22°34' E 114°17'1 1.4
2014-Apr-05 17:31N 22°34' E 114°16'0 0.0
2014-Apr-05 15:10N 22°34' E 114°16'0 0.0
2014-Apr-05 14:27N 22°34' E 114°16'0 0.0
2014-Apr-05 13:09N 22°34' E 114°16'0 0.0
2014-Apr-05 12:32N 22°34' E 114°16'0 0.0
2014-Apr-05 11:32N 22°34' E 114°16'0 0.0
2014-Apr-05 10:32N 22°34' E 114°16'0 0.0
2014-Apr-05 09:25N 22°34' E 114°16'0 0.0
2014-Apr-05 06:24N 22°34' E 114°16'0 0.3
2014-Apr-05 05:31N 22°34' E 114°16'13613.5
2014-Apr-04 19:27N 22°48' E 116°42'1617.6
2014-Apr-04 18:32N 22°55' E 116°58'1917.8
2014-Apr-04 17:29N 23°05' E 117°15'1717.6
2014-Apr-04 16:32N 23°13' E 117°31'1816.2
2014-Apr-04 15:27N 23°22' E 117°48'1415.8
2014-Apr-04 14:33N 23°30' E 118°00'3316.5
2014-Apr-04 12:33N 23°49' E 118°30'3817.3
2014-Apr-04 10:20N 24°13' E 119°02'1917.4
2014-Apr-04 09:16N 24°25' E 119°18'34218.3
2014-Apr-03 14:32N 29°23' E 122°27'1818.7
2014-Apr-03 13:33N 29°41' E 122°25'1313.4
2014-Apr-03 12:33N 29°50' E 122°13'10 9.8
2014-Apr-03 11:33N 29°54' E 122°03'0 0.1
2014-Apr-03 10:30N 29°53' E 122°03'0 0.0
2014-Apr-03 09:33N 29°53' E 122°03'0 0.0
2014-Apr-03 08:29N 29°53' E 122°03'0 0.0
2014-Apr-03 07:32N 29°53' E 122°03'0 0.0
2014-Apr-03 06:32N 29°53' E 122°03'0 0.0
2014-Apr-03 05:31N 29°53' E 122°03'0 0.0
2014-Apr-03 04:28N 29°53' E 122°03'0 0.0
2014-Apr-03 03:33N 29°53' E 122°03'0 0.0
2014-Apr-03 02:33N 29°53' E 122°03'0 0.0
2014-Apr-03 01:32N 29°53' E 122°03'0 0.0
2014-Apr-03 00:32N 29°53' E 122°03'0 0.0
2014-Apr-02 23:31N 29°53' E 122°03'0 0.0
2014-Apr-02 22:28N 29°53' E 122°03'0 0.0
2014-Apr-02 21:31N 29°53' E 122°03'0 0.0
2014-Apr-02 20:33N 29°53' E 122°03'0 0.0
2014-Apr-02 19:30N 29°53' E 122°03'0 0.2
2014-Apr-02 18:33N 29°53' E 122°03'8 8.3
2014-Apr-02 17:33N 29°51' E 122°12'1110.6
2014-Apr-02 16:33N 29°45' E 122°22'9 8.9
2014-Apr-02 15:33N 29°44' E 122°32'7 7.4
2014-Apr-02 14:33N 29°47' E 122°40'8 7.5
2014-Apr-02 13:33N 29°53' E 122°46'34 6.7
2014-Apr-02 08:28N 30°27' E 122°45'1414.8
2014-Apr-02 07:33N 30°31' E 122°30'1313.3
2014-Apr-02 06:33N 30°33' E 122°15'1211.7
2014-Apr-02 05:33N 30°38' E 122°03'  

Dump ship's entire track history

sailing weather and tide predictions

CMA CGM Hugo — DCTA2 — position and weather